createdAt,value
2018-09-15T00:01:43.036Z,72.70
2018-09-15T00:04:13.368Z,72.80
2018-09-15T00:06:43.373Z,72.90
2018-09-15T00:09:13.412Z,73.00
2018-09-15T00:11:43.540Z,73.10
2018-09-15T00:14:13.811Z,73.40
2018-09-15T00:16:43.982Z,73.30
2018-09-15T00:19:13.885Z,73.50
2018-09-15T00:21:43.920Z,73.30
2018-09-15T00:24:14.084Z,73.40
2018-09-15T00:26:44.199Z,73.40
2018-09-15T00:29:14.203Z,73.50
2018-09-15T00:31:44.359Z,73.50
2018-09-15T00:34:14.634Z,73.50
2018-09-15T00:36:44.802Z,73.60
2018-09-15T00:39:14.831Z,73.80
2018-09-15T00:41:44.930Z,73.60
2018-09-15T00:44:15.082Z,73.60
2018-09-15T00:46:45.131Z,73.60
2018-09-15T00:49:15.383Z,73.50
2018-09-15T00:51:45.534Z,73.60
2018-09-15T00:54:15.508Z,73.50
2018-09-15T00:56:45.448Z,73.60
2018-09-15T00:59:15.596Z,73.80
2018-09-15T01:01:45.532Z,73.80
2018-09-15T01:04:15.577Z,73.80
2018-09-15T01:06:45.898Z,73.80
2018-09-15T01:09:15.922Z,73.90
2018-09-15T01:11:46.047Z,74.00
2018-09-15T01:14:16.438Z,74.10
2018-09-15T01:16:46.293Z,74.10
2018-09-15T01:19:16.464Z,74.20
2018-09-15T01:22:01.274Z,74.20
2018-09-15T01:24:32.773Z,74.20
2018-09-15T01:27:02.919Z,74.10
2018-09-15T01:29:32.934Z,74.10
2018-09-15T01:32:02.899Z,74.20
2018-09-15T01:34:33.213Z,74.30
2018-09-15T01:37:03.183Z,74.30
2018-09-15T01:39:33.324Z,74.40
2018-09-15T01:42:03.321Z,74.40
2018-09-15T01:44:33.493Z,74.30
2018-09-15T01:47:03.621Z,74.50
2018-09-15T01:49:33.508Z,74.70
2018-09-15T01:52:03.760Z,75.00
2018-09-15T01:54:33.842Z,74.80
2018-09-15T01:57:03.975Z,75.00
2018-09-15T01:59:34.158Z,74.80
2018-09-15T02:02:04.321Z,74.70
2018-09-15T02:04:34.385Z,74.70
2018-09-15T02:07:04.516Z,74.60
2018-09-15T02:09:34.621Z,74.80
2018-09-15T02:12:04.546Z,74.70
2018-09-15T02:14:34.681Z,74.80
2018-09-15T02:17:04.650Z,74.80
2018-09-15T02:19:34.652Z,74.80
2018-09-15T02:22:04.949Z,74.70
2018-09-15T02:24:35.102Z,74.80
2018-09-15T02:27:05.083Z,74.80
2018-09-15T02:29:35.220Z,74.80
2018-09-15T02:32:05.353Z,75.00
2018-09-15T02:34:35.398Z,74.60
2018-09-15T02:37:05.365Z,74.70
2018-09-15T02:39:35.637Z,74.80
2018-09-15T02:42:05.838Z,74.70
2018-09-15T02:44:35.813Z,74.70
2018-09-15T02:47:05.958Z,74.80
2018-09-15T02:49:36.099Z,74.80
2018-09-15T02:52:06.388Z,74.80
2018-09-15T02:54:36.703Z,74.90
2018-09-15T02:57:06.745Z,75.00
2018-09-15T02:59:36.715Z,74.90
2018-09-15T03:02:06.829Z,75.10
2018-09-15T03:04:37.018Z,75.00
2018-09-15T03:07:07.176Z,75.00
2018-09-15T03:09:37.349Z,75.20
2018-09-15T03:12:07.507Z,75.00
2018-09-15T03:14:37.438Z,75.20
2018-09-15T03:17:07.787Z,75.30
2018-09-15T03:19:37.903Z,75.20
2018-09-15T03:22:08.230Z,75.30
2018-09-15T03:24:38.637Z,75.30
2018-09-15T03:27:08.845Z,75.30
2018-09-15T03:29:39.218Z,75.50
2018-09-15T03:32:09.382Z,75.30
2018-09-15T03:34:39.392Z,75.50
2018-09-15T03:37:09.686Z,75.60
2018-09-15T03:39:39.717Z,75.70
2018-09-15T03:42:09.996Z,75.50
2018-09-15T03:44:40.358Z,75.70
2018-09-15T03:47:10.351Z,75.60
2018-09-15T03:49:40.373Z,75.50
2018-09-15T03:52:10.443Z,75.60
2018-09-15T03:54:40.648Z,75.60
2018-09-15T03:57:10.523Z,75.50
2018-09-15T03:59:40.532Z,75.70
2018-09-15T04:02:10.609Z,75.50
2018-09-15T04:04:40.553Z,75.50
2018-09-15T04:07:10.707Z,75.50
2018-09-15T04:09:40.745Z,75.50
2018-09-15T04:12:10.855Z,75.50
2018-09-15T04:14:40.981Z,75.40
2018-09-15T04:17:10.957Z,75.40
2018-09-15T04:19:41.219Z,75.50
2018-09-15T04:22:12.147Z,75.30
2018-09-15T04:24:42.343Z,75.50
2018-09-15T04:27:12.865Z,75.40
2018-09-15T04:29:42.920Z,75.40
2018-09-15T04:32:13.038Z,75.40
2018-09-15T04:34:43.165Z,75.40
2018-09-15T04:37:13.157Z,75.30
2018-09-15T04:39:43.491Z,75.20
2018-09-15T04:42:13.506Z,75.20
2018-09-15T04:44:43.509Z,75.10
2018-09-15T04:47:13.738Z,75.10
2018-09-15T04:49:43.853Z,75.10
2018-09-15T04:52:13.933Z,75.00
2018-09-15T04:54:43.986Z,75.10
2018-09-15T04:57:14.224Z,75.00
2018-09-15T04:59:44.225Z,75.00
2018-09-15T05:02:14.505Z,74.90
2018-09-15T05:04:44.663Z,74.80
2018-09-15T05:07:14.935Z,74.90
2018-09-15T05:09:44.887Z,74.70
2018-09-15T05:12:15.021Z,74.70
2018-09-15T05:14:45.297Z,74.70
2018-09-15T05:17:15.408Z,74.80
2018-09-15T05:19:45.493Z,74.60
2018-09-15T05:22:15.329Z,74.60
2018-09-15T05:24:45.415Z,74.50
2018-09-15T05:27:15.514Z,74.50
2018-09-15T05:29:45.551Z,74.40
2018-09-15T05:32:15.764Z,74.40
2018-09-15T05:34:45.981Z,74.40
2018-09-15T05:37:15.941Z,74.60
2018-09-15T05:39:45.974Z,74.40
2018-09-15T05:42:16.074Z,74.40
2018-09-15T05:44:46.182Z,75.00
2018-09-15T05:47:16.329Z,76.10
2018-09-15T05:49:46.483Z,76.90
2018-09-15T05:52:16.524Z,75.70
2018-09-15T05:54:46.769Z,75.30
2018-09-15T05:57:17.114Z,75.20
2018-09-15T05:59:47.211Z,75.30
2018-09-15T06:02:17.427Z,75.20
2018-09-15T06:04:47.531Z,75.50
2018-09-15T06:07:17.581Z,75.30
2018-09-15T06:09:47.747Z,75.50
2018-09-15T06:12:17.914Z,75.40
2018-09-15T06:14:47.992Z,75.90
2018-09-15T06:17:18.252Z,75.80
2018-09-15T06:19:48.222Z,75.90
2018-09-15T06:22:18.525Z,75.70
2018-09-15T06:24:48.649Z,76.00
2018-09-15T06:27:18.828Z,75.70
2018-09-15T06:29:48.923Z,75.90
2018-09-15T06:32:19.173Z,76.20
2018-09-15T06:34:49.549Z,75.90
2018-09-15T06:37:19.825Z,76.00
2018-09-15T06:39:49.924Z,76.20
2018-09-15T06:42:20.089Z,76.00
2018-09-15T06:44:50.193Z,76.20
2018-09-15T06:47:20.511Z,76.30
2018-09-15T06:49:50.828Z,76.20
2018-09-15T06:52:21.034Z,76.20
2018-09-15T06:54:51.132Z,76.20
2018-09-15T06:57:21.517Z,76.20
2018-09-15T06:59:51.510Z,76.50
2018-09-15T07:02:21.689Z,76.30
2018-09-15T07:04:51.745Z,76.40
2018-09-15T07:07:21.854Z,76.30
2018-09-15T07:09:51.754Z,76.40
2018-09-15T07:12:21.777Z,76.50
2018-09-15T07:14:52.021Z,76.50
2018-09-15T07:17:22.255Z,76.70
2018-09-15T07:19:52.322Z,77.00
2018-09-15T07:22:22.405Z,76.90
2018-09-15T07:24:52.929Z,76.80
2018-09-15T07:27:23.227Z,77.00
2018-09-15T07:29:53.334Z,76.90
2018-09-15T07:32:23.795Z,77.10
2018-09-15T07:34:53.879Z,77.30
2018-09-15T07:37:24.120Z,77.40
2018-09-15T07:39:54.121Z,77.30
2018-09-15T07:42:24.210Z,77.60
2018-09-15T07:44:54.384Z,78.30
2018-09-15T07:47:24.623Z,77.80
2018-09-15T07:49:55.126Z,77.60
2018-09-15T07:52:25.229Z,77.50
2018-09-15T07:54:55.384Z,77.50
2018-09-15T07:57:25.770Z,77.70
2018-09-15T07:59:55.843Z,77.50
2018-09-15T08:02:25.944Z,77.60
2018-09-15T08:04:56.404Z,77.30
2018-09-15T08:07:26.444Z,77.30
2018-09-15T08:09:56.573Z,77.50
2018-09-15T08:12:26.810Z,77.20
2018-09-15T08:14:57.047Z,77.40
2018-09-15T08:17:27.278Z,77.10
2018-09-15T08:19:57.497Z,77.30
2018-09-15T08:22:27.516Z,77.10
2018-09-15T08:24:57.783Z,77.30
2018-09-15T08:27:27.788Z,77.10
2018-09-15T08:29:58.045Z,77.00
2018-09-15T08:32:28.045Z,77.30
2018-09-15T08:34:58.171Z,77.20
2018-09-15T08:37:28.210Z,77.10
2018-09-15T08:39:58.373Z,77.30
2018-09-15T08:42:28.528Z,77.80
2018-09-15T08:44:58.760Z,77.10
2018-09-15T08:47:29.861Z,77.30
2018-09-15T08:49:59.935Z,77.20
2018-09-15T08:52:29.866Z,77.40
2018-09-15T08:54:59.827Z,77.30
2018-09-15T08:57:29.768Z,77.30
2018-09-15T09:00:00.153Z,77.50
2018-09-15T09:02:30.245Z,77.50
2018-09-15T09:05:00.661Z,77.40
2018-09-15T09:07:30.895Z,78.10
2018-09-15T09:10:01.022Z,77.70
2018-09-15T09:12:31.018Z,77.50
2018-09-15T09:15:01.136Z,77.40
2018-09-15T09:17:31.369Z,77.60
2018-09-15T09:20:01.792Z,77.30
2018-09-15T09:22:31.700Z,77.30
2018-09-15T09:25:01.646Z,77.40
2018-09-15T09:27:31.670Z,77.40
2018-09-15T09:30:01.848Z,77.30
2018-09-15T09:32:31.958Z,77.40
2018-09-15T09:35:02.184Z,77.30
2018-09-15T09:37:32.274Z,77.30
2018-09-15T09:40:02.260Z,77.20
2018-09-15T09:42:32.273Z,77.30
2018-09-15T09:45:02.371Z,77.30
2018-09-15T09:47:32.547Z,77.20
2018-09-15T09:50:02.704Z,77.10
2018-09-15T09:52:32.767Z,77.00
2018-09-15T09:55:03.284Z,77.00
2018-09-15T09:57:33.167Z,76.90
2018-09-15T10:00:03.634Z,76.90
2018-09-15T10:02:34.131Z,76.90
2018-09-15T10:05:04.255Z,76.80
2018-09-15T10:07:37.209Z,76.90
2018-09-15T10:10:07.620Z,76.90
2018-09-15T10:12:37.884Z,76.90
2018-09-15T10:15:08.095Z,76.80
2018-09-15T10:17:38.136Z,76.60
2018-09-15T10:20:08.554Z,76.60
2018-09-15T10:22:38.655Z,76.40
2018-09-15T10:25:08.656Z,76.40
2018-09-15T10:27:38.748Z,76.30
2018-09-15T10:30:09.610Z,75.90
2018-09-15T10:32:39.526Z,76.00
2018-09-15T10:35:09.662Z,75.80
2018-09-15T10:37:39.536Z,75.80
2018-09-15T10:40:09.472Z,75.70
2018-09-15T10:42:39.361Z,75.60
2018-09-15T10:45:09.609Z,75.60
2018-09-15T10:47:39.711Z,75.70
2018-09-15T10:50:09.905Z,75.60
2018-09-15T10:52:39.965Z,75.60
2018-09-15T10:55:10.367Z,75.70
2018-09-15T10:57:40.539Z,75.70
2018-09-15T11:00:10.753Z,75.60
2018-09-15T11:02:41.199Z,75.50
2018-09-15T11:05:12.951Z,75.50
2018-09-15T11:07:43.108Z,75.40
2018-09-15T11:10:13.331Z,75.10
2018-09-15T11:12:43.374Z,74.90
2018-09-15T11:15:13.541Z,74.90
2018-09-15T11:17:43.464Z,74.90
2018-09-15T11:20:13.636Z,74.80
2018-09-15T11:22:43.584Z,75.00
2018-09-15T11:25:13.837Z,75.70
2018-09-15T11:27:44.090Z,75.00
2018-09-15T11:30:14.093Z,75.00
2018-09-15T11:32:43.888Z,74.90
2018-09-15T11:35:13.730Z,74.90
2018-09-15T11:37:43.644Z,74.80
2018-09-15T11:40:13.522Z,74.70
2018-09-15T11:42:43.475Z,74.70
2018-09-15T11:45:13.527Z,74.60
2018-09-15T11:47:43.841Z,74.40
2018-09-15T11:50:15.187Z,74.40
2018-09-15T11:52:45.270Z,74.20
2018-09-15T11:55:15.539Z,74.30
2018-09-15T11:57:45.518Z,74.20
2018-09-15T12:00:18.644Z,74.10
2018-09-15T12:02:48.712Z,74.60
2018-09-15T12:05:18.792Z,73.70
2018-09-15T12:07:49.125Z,73.20
2018-09-15T12:10:19.397Z,73.40
2018-09-15T12:12:49.283Z,73.30
2018-09-15T12:15:19.525Z,73.30
2018-09-15T12:17:49.602Z,73.30
2018-09-15T12:20:19.746Z,73.40
2018-09-15T12:22:49.773Z,73.40
2018-09-15T12:25:19.781Z,73.50
2018-09-15T12:27:49.958Z,73.60
2018-09-15T12:30:19.737Z,73.60
2018-09-15T12:32:49.861Z,73.40
2018-09-15T12:35:19.754Z,73.30
2018-09-15T12:37:49.982Z,73.20
2018-09-15T12:40:20.245Z,73.20
2018-09-15T12:42:50.453Z,73.00
2018-09-15T12:45:20.862Z,73.20
2018-09-15T12:47:50.855Z,73.10
2018-09-15T12:50:21.019Z,73.10
2018-09-15T12:52:51.079Z,73.20
2018-09-15T12:55:21.120Z,73.00
2018-09-15T12:57:51.301Z,73.00
2018-09-15T13:00:21.250Z,73.00
2018-09-15T13:02:51.159Z,73.10
2018-09-15T13:05:21.207Z,73.70
2018-09-15T13:07:51.826Z,73.10
2018-09-15T13:10:21.993Z,73.10
2018-09-15T13:12:52.026Z,72.90
2018-09-15T13:15:22.182Z,72.80
2018-09-15T13:17:52.274Z,72.70
2018-09-15T13:20:22.398Z,72.40
2018-09-15T13:22:52.546Z,72.40
2018-09-15T13:25:22.574Z,73.00
2018-09-15T13:27:52.799Z,72.60
2018-09-15T13:30:22.861Z,71.60
2018-09-15T13:32:52.967Z,71.80
2018-09-15T13:35:23.049Z,71.40
2018-09-15T13:37:53.035Z,71.20
2018-09-15T13:40:23.019Z,70.40
2018-09-15T13:42:53.014Z,70.70
2018-09-15T13:45:23.166Z,70.90
2018-09-15T13:47:53.298Z,70.50
2018-09-15T13:50:23.397Z,70.90
2018-09-15T13:52:53.516Z,70.10
2018-09-15T13:55:23.437Z,70.70
2018-09-15T13:57:53.880Z,70.90
2018-09-15T14:00:24.010Z,70.70
2018-09-15T14:02:54.022Z,70.90
2018-09-15T14:05:24.271Z,70.70
2018-09-15T14:07:54.380Z,71.10
2018-09-15T14:10:24.541Z,70.40
2018-09-15T14:12:54.593Z,70.70
2018-09-15T14:15:24.852Z,70.60
2018-09-15T14:17:54.937Z,70.80
2018-09-15T14:20:25.033Z,70.90
2018-09-15T14:22:55.090Z,70.70
2018-09-15T14:25:25.272Z,70.60
2018-09-15T14:27:55.594Z,70.80
2018-09-15T14:30:25.663Z,70.90
2018-09-15T14:32:57.099Z,70.80
2018-09-15T14:35:27.397Z,70.80
2018-09-15T14:37:57.604Z,71.10
2018-09-15T14:40:27.661Z,70.70
2018-09-15T14:42:57.992Z,70.90
2018-09-15T14:45:28.172Z,70.70
2018-09-15T14:47:58.277Z,70.90
2018-09-15T14:50:28.506Z,70.80
2018-09-15T14:52:58.624Z,70.90
2018-09-15T14:55:28.587Z,70.90
2018-09-15T14:57:58.846Z,71.10
2018-09-15T15:00:28.880Z,71.10
2018-09-15T15:03:03.157Z,71.20
2018-09-15T15:05:33.393Z,71.10
2018-09-15T15:08:03.686Z,71.30
2018-09-15T15:10:33.995Z,71.30
2018-09-15T15:13:04.278Z,71.40
2018-09-15T15:15:34.445Z,72.20
2018-09-15T15:18:04.462Z,71.40
2018-09-15T15:20:34.602Z,71.40
2018-09-15T15:23:04.999Z,71.40
2018-09-15T15:25:35.053Z,71.30
2018-09-15T15:28:05.241Z,71.50
2018-09-15T15:30:35.387Z,71.60
2018-09-15T15:33:05.655Z,71.50
2018-09-15T15:35:35.819Z,71.40
2018-09-15T15:38:05.869Z,71.60
2018-09-15T15:40:35.988Z,71.70
2018-09-15T15:43:06.339Z,71.60
2018-09-15T15:45:36.907Z,71.70
2018-09-15T15:48:07.015Z,71.70
2018-09-15T15:50:37.493Z,71.70
2018-09-15T15:53:07.583Z,71.60
2018-09-15T15:55:37.649Z,71.70
2018-09-15T15:58:07.673Z,71.80
2018-09-15T16:00:37.905Z,71.80
2018-09-15T16:03:08.114Z,71.90
2018-09-15T16:05:38.304Z,71.10
2018-09-15T16:08:08.475Z,71.50
2018-09-15T16:10:38.922Z,71.30
2018-09-15T16:13:09.051Z,71.10
2018-09-15T16:15:39.107Z,71.50
2018-09-15T16:18:09.196Z,70.80
2018-09-15T16:20:39.392Z,70.70
2018-09-15T16:23:09.637Z,70.80
2018-09-15T16:25:40.027Z,70.70
2018-09-15T16:28:10.090Z,70.80
2018-09-15T16:30:40.419Z,70.80
2018-09-15T16:33:10.843Z,70.70
2018-09-15T16:35:40.995Z,70.70
2018-09-15T16:38:11.099Z,70.60
2018-09-15T16:40:41.332Z,70.60
2018-09-15T16:43:11.445Z,70.60
2018-09-15T16:45:41.803Z,70.40
2018-09-15T16:48:11.915Z,70.40
2018-09-15T16:50:42.201Z,70.20
2018-09-15T16:53:12.296Z,71.10
2018-09-15T16:55:42.503Z,70.10
2018-09-15T16:58:12.648Z,70.20
2018-09-15T17:00:42.783Z,70.10
2018-09-15T17:03:13.093Z,70.00
2018-09-15T17:05:43.194Z,69.90
2018-09-15T17:08:13.490Z,70.00
2018-09-15T17:10:43.779Z,69.90
2018-09-15T17:13:14.095Z,69.90
2018-09-15T17:15:44.236Z,69.70
2018-09-15T17:18:14.603Z,69.70
2018-09-15T17:20:44.847Z,69.70
2018-09-15T17:25:52.689Z,69.60
2018-09-15T17:28:22.950Z,69.30
2018-09-15T17:30:53.519Z,69.40
2018-09-15T17:33:23.484Z,69.20
2018-09-15T17:35:53.574Z,69.10
2018-09-15T17:38:23.566Z,69.10
2018-09-15T17:40:53.855Z,69.30
2018-09-15T17:43:24.004Z,69.40
2018-09-15T17:45:54.192Z,69.30
2018-09-15T17:48:24.287Z,69.20
2018-09-15T17:50:54.378Z,69.10
2018-09-15T17:53:24.487Z,69.00
2018-09-15T17:55:54.627Z,69.00
2018-09-15T17:58:24.672Z,69.10
2018-09-15T18:00:54.820Z,68.80
2018-09-15T18:03:24.793Z,68.90
2018-09-15T18:05:55.078Z,68.80
2018-09-15T18:08:25.253Z,68.90
2018-09-15T18:10:55.244Z,68.80
2018-09-15T18:13:25.191Z,68.70
2018-09-15T18:15:55.144Z,68.70
2018-09-15T18:18:25.381Z,68.60
2018-09-15T18:20:55.886Z,68.60
2018-09-15T18:23:26.032Z,68.80
2018-09-15T18:25:56.018Z,68.40
2018-09-15T18:28:25.904Z,68.40
2018-09-15T18:30:58.033Z,68.70
2018-09-15T18:33:28.366Z,68.40
2018-09-15T18:35:58.474Z,68.20
2018-09-15T18:38:28.698Z,68.50
2018-09-15T18:40:58.889Z,68.70
2018-09-15T18:43:29.229Z,68.40
2018-09-15T18:45:59.405Z,68.80
2018-09-15T18:48:29.451Z,68.70
2018-09-15T18:50:59.649Z,68.30
2018-09-15T18:53:30.019Z,68.60
2018-09-15T18:56:00.137Z,68.50
2018-09-15T18:58:30.236Z,68.70
2018-09-15T19:01:00.570Z,68.40
2018-09-15T19:03:31.610Z,68.30
2018-09-15T19:06:02.016Z,68.60
2018-09-15T19:08:32.350Z,68.60
2018-09-15T19:11:02.951Z,68.50
2018-09-15T19:13:33.164Z,68.20
2018-09-15T19:16:03.327Z,68.30
2018-09-15T19:18:33.608Z,68.20
2018-09-15T19:21:04.012Z,68.00
2018-09-15T19:23:34.107Z,68.40
2018-09-15T19:26:04.205Z,67.70
2018-09-15T19:28:34.200Z,67.40
2018-09-15T19:31:04.324Z,67.80
2018-09-15T19:33:34.492Z,68.30
2018-09-15T19:36:04.525Z,68.10
2018-09-15T19:38:34.408Z,68.00
2018-09-15T19:41:04.700Z,67.70
2018-09-15T19:43:34.789Z,67.60
2018-09-15T19:46:04.982Z,68.30
2018-09-15T19:48:35.039Z,68.40
2018-09-15T19:51:05.363Z,68.30
2018-09-15T19:53:39.333Z,68.30
2018-09-15T19:56:10.818Z,68.40
2018-09-15T19:58:41.288Z,68.50
2018-09-15T20:01:11.261Z,68.00
2018-09-15T20:03:41.275Z,68.50
2018-09-15T20:06:11.350Z,68.30
2018-09-15T20:08:41.447Z,68.20
2018-09-15T20:11:12.599Z,68.20
2018-09-15T20:13:42.830Z,68.20
2018-09-15T20:16:11.485Z,68.20
2018-09-15T20:18:39.973Z,67.90
2018-09-15T20:21:08.548Z,68.00
2018-09-15T20:23:38.641Z,68.00
2018-09-15T20:26:08.710Z,68.00
2018-09-15T20:28:38.827Z,67.90
2018-09-15T20:31:09.088Z,67.80
2018-09-15T20:33:39.596Z,67.60
2018-09-15T20:36:09.768Z,68.10
2018-09-15T20:38:39.841Z,67.90
2018-09-15T20:41:10.059Z,67.20
2018-09-15T20:43:40.441Z,67.60
2018-09-15T20:46:10.723Z,67.30
2018-09-15T20:48:40.948Z,67.10
2018-09-15T20:51:11.063Z,68.20
2018-09-15T20:53:41.148Z,67.90
2018-09-15T20:56:11.312Z,68.10
2018-09-15T20:58:41.296Z,67.80
2018-09-15T21:01:11.467Z,67.20
2018-09-15T21:03:41.625Z,67.20
2018-09-15T21:08:48.181Z,66.70
2018-09-15T21:11:18.462Z,67.10
2018-09-15T21:13:48.565Z,66.40
2018-09-15T21:16:18.849Z,66.70
2018-09-15T21:18:49.111Z,66.30
2018-09-15T21:21:19.388Z,66.90
2018-09-15T21:23:49.537Z,66.60
2018-09-15T21:26:19.622Z,67.80
2018-09-15T21:28:50.270Z,67.40
2018-09-15T21:31:20.424Z,67.30
2018-09-15T21:33:56.711Z,67.30
2018-09-15T21:36:27.874Z,66.80
2018-09-15T21:38:59.166Z,66.90
2018-09-15T21:41:32.724Z,65.80
2018-09-15T21:44:05.718Z,67.10
2018-09-15T21:46:37.833Z,67.80
2018-09-15T21:49:09.030Z,69.30
2018-09-15T21:51:41.617Z,68.90
2018-09-15T21:54:13.699Z,67.90
2018-09-15T21:56:47.133Z,67.30
2018-09-15T21:59:19.709Z,67.40
2018-09-15T22:01:51.214Z,67.40
2018-09-15T22:04:24.770Z,67.10
2018-09-15T22:06:56.025Z,66.70
2018-09-15T22:09:27.854Z,67.20
2018-09-15T22:11:58.428Z,66.90
2018-09-15T22:14:29.205Z,67.10
2018-09-15T22:17:01.470Z,67.00
2018-09-15T22:19:32.780Z,67.00
2018-09-15T22:22:04.824Z,67.10
2018-09-15T22:24:38.147Z,66.90
2018-09-15T22:27:08.502Z,66.90
2018-09-15T22:29:42.090Z,67.80
2018-09-15T22:32:14.637Z,66.90
2018-09-15T22:34:45.641Z,66.80
2018-09-15T22:37:25.567Z,67.00
2018-09-15T22:39:58.846Z,66.80
2018-09-15T22:42:31.753Z,66.80
2018-09-15T22:45:04.019Z,66.70
2018-09-15T22:47:39.199Z,66.80
2018-09-15T22:50:10.587Z,67.00
2018-09-15T22:52:41.899Z,66.90
2018-09-15T22:55:14.441Z,67.20
2018-09-15T22:57:50.186Z,67.20
2018-09-15T23:00:20.732Z,67.20
2018-09-15T23:02:53.091Z,67.20
2018-09-15T23:05:24.597Z,67.00
2018-09-15T23:07:56.784Z,67.10
2018-09-15T23:10:29.425Z,66.80
2018-09-15T23:13:03.241Z,66.70
2018-09-15T23:15:35.377Z,67.00
2018-09-15T23:18:07.235Z,66.60
2018-09-15T23:20:39.901Z,66.30
2018-09-15T23:23:11.118Z,66.90
2018-09-15T23:25:42.896Z,66.90
2018-09-15T23:28:14.491Z,66.50
2018-09-15T23:30:45.984Z,66.60
2018-09-15T23:33:17.523Z,67.00
2018-09-15T23:35:52.640Z,66.60
2018-09-15T23:38:25.807Z,66.80
2018-09-15T23:40:59.012Z,66.60
2018-09-15T23:43:30.991Z,66.30
2018-09-15T23:46:02.307Z,66.90
2018-09-15T23:48:34.671Z,67.00
2018-09-15T23:51:07.534Z,67.20
2018-09-15T23:53:40.836Z,66.80
2018-09-15T23:56:12.988Z,67.10
2018-09-15T23:58:45.443Z,66.80
